createdAt,value
2018-04-18T00:00:52.073Z,28.90
2018-04-18T00:01:52.079Z,29.90
2018-04-18T00:02:52.077Z,29.50
2018-04-18T00:03:52.078Z,28.50
2018-04-18T00:04:52.120Z,31.10
2018-04-18T00:05:52.075Z,29.90
2018-04-18T00:06:52.074Z,29.80
2018-04-18T00:07:52.071Z,30.50
2018-04-18T00:08:52.071Z,31.00
2018-04-18T00:09:52.118Z,31.60
2018-04-18T00:10:52.071Z,30.80
2018-04-18T00:11:52.067Z,31.40
2018-04-18T00:12:52.075Z,30.60
2018-04-18T00:13:52.068Z,29.50
2018-04-18T00:14:52.113Z,29.60
2018-04-18T00:15:52.079Z,28.30
2018-04-18T00:16:52.062Z,27.80
2018-04-18T00:17:52.066Z,30.30
2018-04-18T00:18:52.144Z,33.90
2018-04-18T00:19:52.117Z,33.50
2018-04-18T00:20:52.060Z,29.70
2018-04-18T00:21:52.060Z,29.20
2018-04-18T00:22:52.062Z,29.90
2018-04-18T00:23:52.059Z,30.90
2018-04-18T00:24:52.111Z,32.50
2018-04-18T00:25:52.057Z,30.70
2018-04-18T00:26:52.174Z,31.40
2018-04-18T00:27:52.873Z,31.00
2018-04-18T00:28:52.053Z,31.40
2018-04-18T00:29:52.098Z,30.00
2018-04-18T00:30:52.049Z,30.20
2018-04-18T00:31:52.109Z,30.90
2018-04-18T00:32:52.049Z,31.50
2018-04-18T00:33:52.050Z,31.10
2018-04-18T00:35:03.062Z,31.00
2018-04-18T00:35:52.047Z,31.90
2018-04-18T00:36:52.051Z,31.60
2018-04-18T00:37:52.048Z,30.40
2018-04-18T00:38:52.049Z,32.00
2018-04-18T00:39:52.083Z,33.50
2018-04-18T00:40:52.042Z,32.90
2018-04-18T00:41:52.384Z,33.90
2018-04-18T00:42:52.038Z,32.90
2018-04-18T00:43:52.040Z,29.60
2018-04-18T00:44:52.199Z,30.20
2018-04-18T00:45:52.035Z,31.20
2018-04-18T00:46:52.036Z,31.70
2018-04-18T00:47:52.035Z,32.30
2018-04-18T00:48:52.028Z,33.70
2018-04-18T00:49:52.032Z,31.80
2018-04-18T00:50:52.077Z,31.00
2018-04-18T00:51:52.030Z,30.90
2018-04-18T00:52:52.028Z,30.00
2018-04-18T00:53:52.026Z,31.60
2018-04-18T00:54:52.027Z,30.40
2018-04-18T00:55:52.086Z,31.00
2018-04-18T00:56:52.024Z,33.20
2018-04-18T00:57:52.025Z,30.70
2018-04-18T00:58:53.038Z,31.70
2018-04-18T00:59:52.021Z,30.70
2018-04-18T01:00:52.092Z,30.10
2018-04-18T01:01:52.020Z,31.70
2018-04-18T01:02:52.017Z,34.30
2018-04-18T01:03:52.011Z,31.90
2018-04-18T01:04:52.020Z,31.10
2018-04-18T01:05:52.072Z,31.50
2018-04-18T01:06:52.013Z,31.90
2018-04-18T01:07:52.005Z,31.90
2018-04-18T01:08:52.010Z,31.60
2018-04-18T01:09:52.005Z,32.10
2018-04-18T01:10:52.004Z,31.60
2018-04-18T01:11:52.046Z,31.50
2018-04-18T01:12:51.995Z,31.60
2018-04-18T01:13:51.998Z,31.00
2018-04-18T01:14:52.006Z,32.20
2018-04-18T01:15:52.059Z,31.80
2018-04-18T01:16:51.998Z,35.10
2018-04-18T01:17:51.995Z,31.40
2018-04-18T01:18:52.001Z,30.70
2018-04-18T01:19:51.986Z,30.90
2018-04-18T01:20:51.992Z,32.20
2018-04-18T01:21:52.047Z,32.00
2018-04-18T01:22:51.983Z,32.40
2018-04-18T01:23:51.987Z,33.50
2018-04-18T01:24:51.990Z,34.20
2018-04-18T01:25:51.988Z,33.10
2018-04-18T01:26:52.075Z,34.80
2018-04-18T01:27:51.984Z,33.20
2018-04-18T01:28:51.979Z,33.80
2018-04-18T01:29:51.973Z,33.10
2018-04-18T01:30:51.979Z,31.00
2018-04-18T01:31:53.711Z,31.20
2018-04-18T01:32:51.967Z,31.90
2018-04-18T01:33:51.973Z,33.10
2018-04-18T01:34:51.972Z,34.00
2018-04-18T01:35:51.969Z,33.60
2018-04-18T01:36:51.965Z,34.60
2018-04-18T01:37:52.089Z,34.10
2018-04-18T01:38:51.992Z,35.60
2018-04-18T01:39:51.967Z,34.50
2018-04-18T01:40:51.966Z,32.10
2018-04-18T01:41:51.960Z,33.30
2018-04-18T01:42:52.022Z,32.80
2018-04-18T01:43:51.955Z,35.50
2018-04-18T01:44:52.343Z,34.00
2018-04-18T01:45:51.952Z,37.80
2018-04-18T01:47:13.576Z,36.50
2018-04-18T01:47:51.948Z,36.60
2018-04-18T01:48:51.948Z,36.60
2018-04-18T01:49:51.949Z,35.00
2018-04-18T01:50:52.879Z,35.90
2018-04-18T01:51:51.985Z,34.80
2018-04-18T01:52:51.943Z,33.90
2018-04-18T01:53:51.940Z,32.40
2018-04-18T01:54:51.931Z,34.20
2018-04-18T01:55:51.935Z,34.80
2018-04-18T01:56:51.982Z,34.00
2018-04-18T01:57:51.937Z,34.90
2018-04-18T01:58:52.032Z,34.10
2018-04-18T01:59:51.931Z,38.60
2018-04-18T02:00:51.925Z,35.70
2018-04-18T02:01:52.087Z,36.90
2018-04-18T02:02:51.929Z,36.10
2018-04-18T02:03:51.915Z,35.40
2018-04-18T02:04:51.921Z,34.00
2018-04-18T02:05:51.923Z,34.10
2018-04-18T02:06:51.917Z,31.20
2018-04-18T02:07:51.963Z,32.60
2018-04-18T02:08:51.917Z,34.20
2018-04-18T02:09:51.904Z,33.60
2018-04-18T02:10:51.907Z,33.20
2018-04-18T02:11:51.951Z,33.00
2018-04-18T02:12:51.906Z,30.50
2018-04-18T02:13:51.907Z,28.70
2018-04-18T02:14:51.903Z,29.90
2018-04-18T02:15:51.903Z,30.90
2018-04-18T02:16:51.943Z,33.20
2018-04-18T02:17:51.898Z,32.20
2018-04-18T02:18:51.892Z,32.50
2018-04-18T02:19:51.895Z,31.20
2018-04-18T02:20:51.893Z,31.40
2018-04-18T02:21:51.934Z,33.40
2018-04-18T02:22:51.889Z,30.70
2018-04-18T02:23:52.716Z,34.30
2018-04-18T02:24:51.887Z,34.10
2018-04-18T02:25:51.880Z,35.30
2018-04-18T02:26:51.923Z,35.20
2018-04-18T02:27:51.881Z,36.60
2018-04-18T02:28:51.872Z,33.50
2018-04-18T02:29:51.878Z,31.30
2018-04-18T02:30:51.880Z,31.80
2018-04-18T02:31:51.927Z,32.30
2018-04-18T02:32:51.871Z,33.20
2018-04-18T02:33:51.864Z,35.50
2018-04-18T02:34:51.944Z,35.70
2018-04-18T02:35:51.864Z,36.30
2018-04-18T02:37:02.559Z,36.30
2018-04-18T02:37:51.860Z,36.00
2018-04-18T02:38:51.852Z,34.50
2018-04-18T02:39:51.861Z,38.00
2018-04-18T02:40:51.857Z,33.80
2018-04-18T02:41:52.296Z,34.50
2018-04-18T02:42:51.856Z,34.90
2018-04-18T02:43:51.848Z,36.90
2018-04-18T02:44:51.841Z,40.20
2018-04-18T02:45:51.848Z,39.10
2018-04-18T02:46:51.907Z,39.40
2018-04-18T02:47:51.840Z,39.90
2018-04-18T02:48:51.844Z,39.30
2018-04-18T02:49:51.840Z,36.50
2018-04-18T02:50:51.836Z,38.40
2018-04-18T02:51:51.887Z,37.00
2018-04-18T02:52:51.836Z,36.40
2018-04-18T02:53:51.827Z,38.60
2018-04-18T02:54:51.830Z,41.50
2018-04-18T02:55:51.827Z,38.40
2018-04-18T02:56:51.871Z,38.60
2018-04-18T02:57:51.825Z,39.00
2018-04-18T02:58:51.820Z,40.80
2018-04-18T02:59:51.827Z,40.90
2018-04-18T03:00:51.873Z,39.70
2018-04-18T03:01:51.815Z,39.00
2018-04-18T03:02:51.811Z,40.60
2018-04-18T03:03:51.809Z,41.30
2018-04-18T03:04:51.807Z,39.80
2018-04-18T03:05:51.808Z,42.40
2018-04-18T03:06:51.853Z,43.30
2018-04-18T03:07:51.800Z,43.60
2018-04-18T03:08:51.801Z,43.70
2018-04-18T03:09:51.797Z,43.70
2018-04-18T03:10:51.797Z,43.70
2018-04-18T03:11:51.835Z,44.30
2018-04-18T03:12:51.790Z,47.50
2018-04-18T03:13:51.784Z,47.70
2018-04-18T03:14:51.791Z,48.80
2018-04-18T03:15:51.785Z,47.10
2018-04-18T03:16:51.833Z,43.80
2018-04-18T03:17:51.781Z,45.60
2018-04-18T03:18:51.781Z,45.10
2018-04-18T03:19:51.786Z,46.10
2018-04-18T03:20:51.777Z,47.50
2018-04-18T03:22:02.735Z,48.20
2018-04-18T03:22:51.796Z,46.20
2018-04-18T03:23:51.798Z,46.80
2018-04-18T03:24:51.849Z,47.00
2018-04-18T03:25:51.791Z,47.00
2018-04-18T03:26:51.786Z,47.90
2018-04-18T03:27:51.822Z,48.10
2018-04-18T03:28:51.778Z,47.00
2018-04-18T03:29:51.781Z,46.90
2018-04-18T03:30:51.779Z,47.90
2018-04-18T03:31:51.779Z,45.10
2018-04-18T03:32:51.889Z,44.90
2018-04-18T03:33:51.771Z,45.10
2018-04-18T03:34:52.424Z,45.70
2018-04-18T03:35:51.817Z,45.10
2018-04-18T03:36:51.764Z,43.80
2018-04-18T03:37:52.555Z,44.80
2018-04-18T03:38:51.763Z,44.10
2018-04-18T03:39:51.992Z,45.60
2018-04-18T03:40:51.787Z,44.60
2018-04-18T03:41:51.767Z,41.90
2018-04-18T03:42:51.806Z,41.10
2018-04-18T03:44:03.331Z,42.40
2018-04-18T03:44:51.751Z,41.40
2018-04-18T03:45:51.743Z,43.40
2018-04-18T03:46:51.773Z,42.80
2018-04-18T03:47:51.744Z,43.30
2018-04-18T03:48:51.791Z,44.50
2018-04-18T03:49:51.749Z,45.80
2018-04-18T03:50:51.742Z,46.10
2018-04-18T03:51:51.735Z,45.10
2018-04-18T03:52:59.568Z,41.20
2018-04-18T03:53:51.727Z,42.30
2018-04-18T03:54:51.723Z,38.40
2018-04-18T03:55:51.723Z,37.40
2018-04-18T03:56:55.902Z,37.40
2018-04-18T03:57:53.582Z,38.50
2018-04-18T03:58:51.716Z,37.30
2018-04-18T03:59:51.721Z,39.30
2018-04-18T04:00:51.719Z,40.20
2018-04-18T04:01:51.714Z,40.50
2018-04-18T04:02:51.774Z,40.80
2018-04-18T04:03:51.708Z,42.90
2018-04-18T04:04:51.712Z,41.90
2018-04-18T04:05:51.706Z,43.80
2018-04-18T04:06:51.710Z,46.90
2018-04-18T04:07:51.880Z,44.50
2018-04-18T04:08:51.704Z,47.20
2018-04-18T04:09:51.699Z,45.40
2018-04-18T04:10:51.696Z,43.10
2018-04-18T04:11:51.695Z,41.30
2018-04-18T04:12:51.688Z,40.80
2018-04-18T04:13:51.748Z,39.00
2018-04-18T04:14:51.689Z,38.20
2018-04-18T04:15:51.684Z,36.60
2018-04-18T04:16:51.680Z,37.20
2018-04-18T04:17:51.681Z,38.40
2018-04-18T04:18:51.677Z,37.70
2018-04-18T04:19:51.753Z,38.60
2018-04-18T04:20:51.677Z,39.30
2018-04-18T04:21:51.672Z,38.70
2018-04-18T04:22:51.673Z,44.30
2018-04-18T04:23:51.725Z,46.20
2018-04-18T04:24:51.729Z,46.50
2018-04-18T04:25:51.665Z,42.30
2018-04-18T04:26:51.661Z,40.20
2018-04-18T04:27:51.657Z,41.20
2018-04-18T04:28:51.655Z,41.50
2018-04-18T04:29:51.697Z,42.30
2018-04-18T04:30:51.652Z,40.00
2018-04-18T04:31:51.655Z,42.30
2018-04-18T04:32:51.648Z,40.70
2018-04-18T04:33:51.643Z,39.10
2018-04-18T04:34:51.852Z,40.80
2018-04-18T04:35:51.645Z,39.30
2018-04-18T04:36:51.632Z,37.00
2018-04-18T04:37:51.646Z,34.40
2018-04-18T04:38:51.643Z,40.10
2018-04-18T04:39:51.635Z,38.80
2018-04-18T04:40:51.678Z,40.20
2018-04-18T04:41:51.632Z,42.50
2018-04-18T04:42:51.626Z,41.80
2018-04-18T04:43:51.631Z,39.70
2018-04-18T04:44:51.685Z,39.70
2018-04-18T04:45:51.926Z,38.60
2018-04-18T04:46:51.619Z,36.70
2018-04-18T04:47:53.784Z,36.10
2018-04-18T04:48:51.612Z,37.60
2018-04-18T04:49:59.548Z,40.80
2018-04-18T04:50:51.666Z,38.30
2018-04-18T04:51:51.610Z,34.80
2018-04-18T04:52:51.603Z,37.60
2018-04-18T04:53:51.611Z,38.30
2018-04-18T04:54:51.604Z,38.40
2018-04-18T04:55:52.600Z,43.10
2018-04-18T04:56:51.595Z,42.40
2018-04-18T04:57:51.596Z,43.40
2018-04-18T04:58:51.597Z,45.20
2018-04-18T04:59:51.596Z,44.00
2018-04-18T05:00:51.645Z,44.20
2018-04-18T05:01:51.588Z,44.10
2018-04-18T05:02:51.606Z,39.10
2018-04-18T05:03:51.585Z,37.30
2018-04-18T05:04:51.633Z,37.10
2018-04-18T05:05:51.583Z,35.90
2018-04-18T05:06:51.583Z,37.20
2018-04-18T05:07:51.582Z,36.50
2018-04-18T05:08:51.573Z,38.40
2018-04-18T05:09:51.617Z,37.60
2018-04-18T05:10:51.601Z,38.40
2018-04-18T05:11:51.576Z,38.10
2018-04-18T05:12:51.579Z,37.70
2018-04-18T05:13:51.572Z,39.00
2018-04-18T05:14:51.629Z,45.90
2018-04-18T05:15:51.571Z,43.10
2018-04-18T05:16:51.569Z,57.50
2018-04-18T05:17:51.570Z,66.20
2018-04-18T05:18:51.569Z,53.30
2018-04-18T05:19:51.619Z,48.00
2018-04-18T05:20:51.563Z,47.10
2018-04-18T05:21:51.558Z,33.90
2018-04-18T05:22:51.569Z,37.80
2018-04-18T05:23:51.560Z,39.60
2018-04-18T05:24:51.598Z,43.80
2018-04-18T05:25:51.554Z,44.50
2018-04-18T05:26:51.558Z,29.80
2018-04-18T05:27:51.554Z,31.10
2018-04-18T05:28:51.552Z,33.00
2018-04-18T05:29:51.606Z,33.50
2018-04-18T05:30:51.629Z,33.70
2018-04-18T05:31:52.515Z,33.90
2018-04-18T05:32:52.540Z,33.80
2018-04-18T05:33:51.550Z,31.70
2018-04-18T05:34:52.215Z,28.00
2018-04-18T05:35:51.552Z,28.60
2018-04-18T05:36:51.557Z,30.00
2018-04-18T05:37:51.554Z,29.90
2018-04-18T05:38:51.579Z,31.00
2018-04-18T05:39:51.604Z,32.00
2018-04-18T05:40:51.555Z,31.90
2018-04-18T05:41:51.556Z,31.30
2018-04-18T05:42:51.547Z,30.70
2018-04-18T05:43:51.552Z,30.20
2018-04-18T05:44:51.596Z,31.30
2018-04-18T05:45:51.552Z,30.50
2018-04-18T05:46:51.556Z,30.30
2018-04-18T05:47:51.552Z,29.80
2018-04-18T05:48:51.555Z,30.10
2018-04-18T05:49:51.600Z,28.90
2018-04-18T05:50:51.648Z,29.50
2018-04-18T05:51:51.553Z,30.60
2018-04-18T05:52:51.564Z,30.30
2018-04-18T05:53:51.561Z,30.20
2018-04-18T05:54:51.623Z,30.80
2018-04-18T05:55:51.560Z,29.70
2018-04-18T05:56:51.566Z,29.60
2018-04-18T05:57:51.564Z,28.60
2018-04-18T05:58:51.573Z,27.10
2018-04-18T05:59:51.870Z,25.10
2018-04-18T06:00:51.571Z,26.60
2018-04-18T06:01:51.569Z,26.90
2018-04-18T06:02:51.583Z,25.50
2018-04-18T06:03:51.973Z,27.70
2018-04-18T06:04:51.612Z,27.20
2018-04-18T06:06:06.110Z,26.00
2018-04-18T06:06:51.583Z,27.70
2018-04-18T06:07:51.577Z,26.20
2018-04-18T06:08:51.582Z,27.30
2018-04-18T06:09:51.588Z,27.50
2018-04-18T06:10:55.304Z,26.50
2018-04-18T06:11:51.586Z,26.80
2018-04-18T06:12:51.592Z,26.20
2018-04-18T06:13:51.593Z,26.70
2018-04-18T06:14:51.595Z,26.40
2018-04-18T06:15:51.643Z,25.40
2018-04-18T06:16:51.602Z,24.30
2018-04-18T06:17:51.627Z,24.80
2018-04-18T06:18:51.610Z,25.90
2018-04-18T06:19:51.831Z,26.30
2018-04-18T06:20:51.611Z,24.40
2018-04-18T06:21:51.617Z,25.70
2018-04-18T06:22:51.838Z,25.10
2018-04-18T06:23:51.623Z,24.60
2018-04-18T06:24:52.063Z,23.60
2018-04-18T06:25:51.630Z,24.50
2018-04-18T06:26:51.637Z,22.70
2018-04-18T06:27:51.652Z,23.30
2018-04-18T06:28:51.646Z,22.60
2018-04-18T06:29:52.548Z,23.10
2018-04-18T06:30:51.687Z,23.00
2018-04-18T06:31:51.686Z,22.90
2018-04-18T06:32:51.661Z,23.00
2018-04-18T06:33:51.667Z,22.50
2018-04-18T06:34:51.662Z,23.60
2018-04-18T06:35:51.723Z,22.80
2018-04-18T06:36:51.676Z,21.80
2018-04-18T06:37:51.764Z,22.40
2018-04-18T06:38:51.679Z,21.20
2018-04-18T06:39:51.689Z,22.20
2018-04-18T06:40:51.728Z,23.60
2018-04-18T06:41:51.697Z,23.00
2018-04-18T06:42:51.706Z,23.40
2018-04-18T06:43:51.705Z,23.80
2018-04-18T06:44:51.710Z,23.90
2018-04-18T06:45:51.770Z,23.10
2018-04-18T06:46:51.725Z,22.90
2018-04-18T06:47:53.414Z,23.00
2018-04-18T06:48:51.727Z,23.50
2018-04-18T06:49:51.838Z,22.00
2018-04-18T06:50:59.605Z,24.30
2018-04-18T06:51:51.749Z,24.00
2018-04-18T06:52:51.745Z,23.60
2018-04-18T06:53:51.758Z,23.70
2018-04-18T06:54:51.759Z,23.70
2018-04-18T06:56:02.621Z,22.40
2018-04-18T06:56:51.769Z,23.30
2018-04-18T06:57:51.781Z,23.00
2018-04-18T06:58:51.788Z,23.30
2018-04-18T06:59:51.791Z,23.80
2018-04-18T07:00:55.115Z,24.10
2018-04-18T07:01:51.805Z,23.40
2018-04-18T07:02:51.818Z,22.60
2018-04-18T07:03:51.813Z,24.00
2018-04-18T07:04:51.826Z,23.80
2018-04-18T07:05:52.029Z,24.20
2018-04-18T07:06:51.833Z,23.20
2018-04-18T07:07:51.854Z,23.90
2018-04-18T07:08:51.847Z,23.40
2018-04-18T07:09:51.856Z,23.60
2018-04-18T07:10:51.863Z,22.60
2018-04-18T07:11:51.916Z,21.90
2018-04-18T07:12:51.879Z,21.30
2018-04-18T07:13:51.882Z,22.00
2018-04-18T07:14:51.891Z,21.30
2018-04-18T07:15:52.046Z,21.40
2018-04-18T07:16:52.640Z,22.20
2018-04-18T07:17:51.912Z,20.50
2018-04-18T07:18:51.924Z,21.40
2018-04-18T07:19:51.941Z,21.30
2018-04-18T07:20:51.940Z,21.20
2018-04-18T07:21:52.016Z,21.60
2018-04-18T07:22:51.949Z,21.70
2018-04-18T07:23:51.958Z,21.20
2018-04-18T07:24:51.980Z,21.40
2018-04-18T07:25:51.980Z,20.40
2018-04-18T07:26:52.766Z,20.20
2018-04-18T07:27:51.992Z,21.30
2018-04-18T07:28:52.005Z,20.80
2018-04-18T07:29:52.010Z,20.20
2018-04-18T07:30:52.017Z,20.20
2018-04-18T07:31:52.025Z,20.30
2018-04-18T07:32:52.091Z,20.10
2018-04-18T07:33:52.049Z,20.40
2018-04-18T07:34:52.063Z,20.60
2018-04-18T07:35:52.069Z,21.50
2018-04-18T07:36:52.076Z,20.00
2018-04-18T07:37:52.161Z,21.40
2018-04-18T07:38:52.098Z,21.20
2018-04-18T07:39:52.105Z,20.70
2018-04-18T07:40:52.122Z,21.30
2018-04-18T07:41:52.134Z,22.20
2018-04-18T07:42:55.622Z,21.00
2018-04-18T07:43:52.146Z,21.10
2018-04-18T07:44:52.160Z,21.30
2018-04-18T07:45:52.166Z,21.70
2018-04-18T07:46:52.195Z,20.80
2018-04-18T07:47:52.229Z,21.30
2018-04-18T07:48:52.207Z,21.10
2018-04-18T07:49:52.219Z,21.20
2018-04-18T07:50:52.231Z,20.90
2018-04-18T07:51:52.231Z,22.30
2018-04-18T07:52:52.299Z,20.70
2018-04-18T07:53:52.266Z,20.70
2018-04-18T07:54:52.327Z,19.90
2018-04-18T07:55:52.353Z,20.90
2018-04-18T07:56:52.288Z,22.20
2018-04-18T07:57:52.655Z,20.40
2018-04-18T07:58:52.317Z,21.00
2018-04-18T07:59:52.335Z,21.10
2018-04-18T08:00:52.342Z,21.00
2018-04-18T08:01:52.622Z,20.70
2018-04-18T08:02:55.625Z,19.90
2018-04-18T08:03:52.380Z,19.50
2018-04-18T08:04:52.390Z,20.40
2018-04-18T08:05:52.400Z,20.80
2018-04-18T08:06:52.491Z,19.80
2018-04-18T08:07:52.424Z,21.90
2018-04-18T08:08:52.432Z,19.40
2018-04-18T08:09:52.563Z,21.00
2018-04-18T08:10:52.478Z,19.60
2018-04-18T08:11:52.473Z,20.60
2018-04-18T08:12:52.543Z,19.70
2018-04-18T08:13:52.507Z,19.80
2018-04-18T08:14:52.521Z,19.60
2018-04-18T08:15:52.533Z,19.50
2018-04-18T08:16:52.541Z,19.90
2018-04-18T08:17:52.604Z,20.00
2018-04-18T08:18:52.573Z,20.30
2018-04-18T08:19:52.594Z,20.20
2018-04-18T08:20:52.593Z,19.80
2018-04-18T08:21:52.623Z,19.40
2018-04-18T08:22:52.675Z,19.50
2018-04-18T08:23:53.031Z,18.70
2018-04-18T08:24:52.648Z,18.20
2018-04-18T08:25:52.661Z,18.00
2018-04-18T08:26:52.674Z,18.60
2018-04-18T08:28:03.660Z,18.30
2018-04-18T08:28:52.702Z,20.30
2018-04-18T08:29:52.787Z,19.50
2018-04-18T08:30:52.745Z,19.20
2018-04-18T08:31:52.760Z,19.00
2018-04-18T08:32:52.776Z,19.10
2018-04-18T08:33:53.639Z,18.00
2018-04-18T08:34:52.796Z,17.40
2018-04-18T08:35:52.802Z,15.60
2018-04-18T08:36:52.832Z,17.40
2018-04-18T08:37:52.848Z,17.00
2018-04-18T08:38:52.940Z,16.90
2018-04-18T08:39:52.865Z,17.10
2018-04-18T08:40:52.891Z,17.30
2018-04-18T08:41:52.892Z,16.20
2018-04-18T08:42:52.916Z,15.80
2018-04-18T08:43:52.997Z,15.50
2018-04-18T08:44:52.955Z,14.80
2018-04-18T08:45:52.966Z,14.20
2018-04-18T08:46:52.991Z,13.60
2018-04-18T08:47:52.991Z,13.80
2018-04-18T08:48:53.064Z,14.70
2018-04-18T08:49:53.020Z,13.70
2018-04-18T08:50:53.047Z,13.20
2018-04-18T08:51:53.074Z,13.20
2018-04-18T08:52:53.090Z,14.30
2018-04-18T08:53:53.141Z,13.90
2018-04-18T08:54:53.112Z,11.20
2018-04-18T08:55:53.129Z,12.70
2018-04-18T08:56:53.146Z,12.40
2018-04-18T08:57:54.245Z,11.40
2018-04-18T08:58:53.172Z,11.50
2018-04-18T08:59:53.190Z,12.20
2018-04-18T09:00:53.213Z,11.80
2018-04-18T09:01:53.231Z,11.20
2018-04-18T09:02:53.313Z,11.00
2018-04-18T09:03:53.257Z,10.70
2018-04-18T09:04:53.293Z,9.30
2018-04-18T09:05:53.305Z,9.20
2018-04-18T09:06:53.313Z,9.70
2018-04-18T09:07:53.413Z,9.30
2018-04-18T09:08:53.346Z,9.10
2018-04-18T09:09:53.375Z,9.80
2018-04-18T09:10:53.381Z,10.70
2018-04-18T09:11:53.417Z,9.70
2018-04-18T09:13:11.709Z,10.50
2018-04-18T09:13:53.438Z,10.30
2018-04-18T09:14:53.456Z,10.30
2018-04-18T09:15:53.467Z,10.00
2018-04-18T09:16:53.493Z,9.30
2018-04-18T09:17:53.674Z,9.70
2018-04-18T09:18:53.532Z,10.50
2018-04-18T09:19:53.542Z,10.00
2018-04-18T09:20:53.570Z,10.80
2018-04-18T09:21:53.580Z,10.00
2018-04-18T09:22:53.603Z,9.70
2018-04-18T09:23:53.666Z,9.40
2018-04-18T09:24:53.639Z,9.30
2018-04-18T09:25:53.656Z,9.70
2018-04-18T09:26:53.692Z,9.70
2018-04-18T09:27:53.696Z,8.60
2018-04-18T09:29:08.937Z,9.20
2018-04-18T09:29:53.729Z,8.90
2018-04-18T09:30:53.743Z,8.50
2018-04-18T09:31:53.772Z,7.50
2018-04-18T09:32:53.797Z,7.30
2018-04-18T09:33:53.865Z,7.20
2018-04-18T09:34:53.820Z,6.10
2018-04-18T09:35:53.848Z,5.50
2018-04-18T09:36:53.870Z,6.60
2018-04-18T09:37:53.939Z,5.10
2018-04-18T09:38:53.908Z,5.60
2018-04-18T09:39:53.928Z,6.70
2018-04-18T09:40:53.935Z,6.70
2018-04-18T09:41:53.957Z,6.10
2018-04-18T09:42:54.036Z,5.90
2018-04-18T09:43:54.023Z,6.30
2018-04-18T09:44:54.034Z,6.40
2018-04-18T09:45:54.045Z,6.00
2018-04-18T09:46:54.204Z,5.50
2018-04-18T09:47:54.152Z,5.90
2018-04-18T09:48:54.106Z,6.70
2018-04-18T09:49:55.163Z,5.80
2018-04-18T09:50:54.154Z,6.00
2018-04-18T09:51:54.202Z,5.90
2018-04-18T09:52:54.249Z,6.10
2018-04-18T09:53:54.215Z,6.00
2018-04-18T09:54:54.238Z,5.60
2018-04-18T09:55:54.260Z,5.70
2018-04-18T09:56:54.285Z,5.20
2018-04-18T09:58:02.187Z,4.80
2018-04-18T09:58:54.320Z,5.00
2018-04-18T09:59:54.335Z,5.30
2018-04-18T10:00:54.372Z,5.30
2018-04-18T10:01:54.396Z,5.50
2018-04-18T10:02:54.419Z,5.00
2018-04-18T10:03:54.491Z,3.50
2018-04-18T10:04:54.446Z,3.50
2018-04-18T10:05:54.471Z,3.80
2018-04-18T10:06:54.500Z,3.30
2018-04-18T10:07:54.505Z,4.30
2018-04-18T10:08:54.584Z,3.90
2018-04-18T10:09:54.564Z,3.60
2018-04-18T10:10:54.575Z,3.70
2018-04-18T10:11:55.194Z,3.70
2018-04-18T10:12:54.616Z,3.50
2018-04-18T10:13:54.680Z,3.30
2018-04-18T10:14:54.658Z,3.60
2018-04-18T10:15:54.681Z,3.80
2018-04-18T10:16:54.705Z,3.70
2018-04-18T10:17:54.730Z,3.30
2018-04-18T10:19:05.686Z,3.60
2018-04-18T10:19:54.766Z,4.40
2018-04-18T10:20:54.798Z,5.00
2018-04-18T10:21:54.790Z,4.60
2018-04-18T10:22:55.637Z,4.40
2018-04-18T10:25:26.541Z,3.80
2018-04-18T10:26:26.563Z,3.90
2018-04-18T10:27:26.577Z,3.80
2018-04-18T10:28:34.651Z,3.90
2018-04-18T10:29:26.627Z,3.80
2018-04-18T10:30:26.639Z,3.90
2018-04-18T10:31:26.673Z,4.20
2018-04-18T10:32:26.689Z,3.90
2018-04-18T10:33:26.712Z,4.00
2018-04-18T10:34:26.776Z,3.90
2018-04-18T10:35:26.759Z,3.50
2018-04-18T10:36:26.771Z,3.70
2018-04-18T10:37:27.413Z,3.60
2018-04-18T10:38:26.815Z,4.10
2018-04-18T10:39:26.919Z,3.70
2018-04-18T10:40:26.860Z,4.10
2018-04-18T10:41:26.885Z,3.90
2018-04-18T10:42:26.918Z,4.00
2018-04-18T10:43:26.967Z,4.00
2018-04-18T10:44:34.649Z,3.90
2018-04-18T10:45:27.083Z,4.10
2018-04-18T10:46:26.994Z,3.80
2018-04-18T10:47:27.019Z,3.90
2018-04-18T10:48:27.037Z,4.50
2018-04-18T10:49:27.054Z,4.30
2018-04-18T10:50:27.141Z,3.90
2018-04-18T10:51:27.107Z,3.70
2018-04-18T10:52:27.127Z,3.40
2018-04-18T10:53:27.142Z,3.50
2018-04-18T10:54:27.163Z,3.60
2018-04-18T10:55:38.145Z,3.80
2018-04-18T10:56:27.204Z,3.90
2018-04-18T10:57:27.238Z,4.10
2018-04-18T10:58:27.253Z,3.50
2018-04-18T10:59:27.276Z,4.00
2018-04-18T11:00:27.447Z,4.10
2018-04-18T11:01:27.316Z,3.80
2018-04-18T11:02:27.342Z,3.70
2018-04-18T11:03:27.365Z,3.80
2018-04-18T11:04:27.387Z,3.60
2018-04-18T11:05:27.585Z,3.70
2018-04-18T11:06:29.310Z,3.70
2018-04-18T11:07:27.450Z,3.70
2018-04-18T11:08:27.478Z,3.70
2018-04-18T11:09:27.495Z,3.60
2018-04-18T11:10:27.523Z,3.70
2018-04-18T11:11:27.688Z,3.70
2018-04-18T11:12:27.583Z,3.40
2018-04-18T11:13:27.587Z,3.40
2018-04-18T11:14:28.634Z,3.80
2018-04-18T11:15:27.960Z,3.70
2018-04-18T11:16:33.239Z,3.40
2018-04-18T11:17:27.676Z,3.90
2018-04-18T11:18:27.762Z,3.80
2018-04-18T11:19:27.717Z,3.60
2018-04-18T11:20:27.817Z,3.60
2018-04-18T11:21:27.792Z,3.60
2018-04-18T11:22:42.315Z,3.90
2018-04-18T11:23:27.845Z,3.90
2018-04-18T11:24:27.846Z,4.10
2018-04-18T11:25:27.926Z,4.00
2018-04-18T11:26:27.971Z,3.80
2018-04-18T11:27:28.960Z,4.30
2018-04-18T11:28:27.919Z,3.80
2018-04-18T11:29:27.934Z,4.10
2018-04-18T11:30:27.951Z,3.70
2018-04-18T11:31:27.966Z,3.80
2018-04-18T11:33:03.164Z,4.00
2018-04-18T11:33:28.011Z,4.00
2018-04-18T11:34:28.027Z,4.20
2018-04-18T11:35:28.052Z,4.60
2018-04-18T11:36:31.171Z,4.40
2018-04-18T11:37:28.093Z,4.30
2018-04-18T11:38:28.125Z,4.30
2018-04-18T11:39:28.832Z,4.30
2018-04-18T11:40:28.152Z,4.00
2018-04-18T11:42:07.675Z,3.70
2018-04-18T11:42:28.196Z,3.90
2018-04-18T11:43:28.816Z,4.10
2018-04-18T11:44:28.713Z,4.10
2018-04-18T11:45:28.379Z,3.70
2018-04-18T11:46:28.275Z,3.80
2018-04-18T11:49:02.083Z,3.60
2018-04-18T11:50:00.526Z,3.40
2018-04-18T11:51:00.546Z,3.50
2018-04-18T11:52:00.635Z,3.80
2018-04-18T11:53:00.591Z,3.60
2018-04-18T11:54:00.612Z,3.40
2018-04-18T11:55:00.638Z,3.70
2018-04-18T11:56:00.695Z,3.10
2018-04-18T11:57:00.855Z,3.60
2018-04-18T11:58:00.691Z,3.40
2018-04-18T11:59:00.730Z,3.50
2018-04-18T12:00:00.735Z,3.50
2018-04-18T12:01:00.773Z,3.50
2018-04-18T12:02:00.798Z,3.70
2018-04-18T12:03:04.124Z,3.80
2018-04-18T12:04:00.825Z,3.90
2018-04-18T12:05:00.845Z,3.30
2018-04-18T12:06:00.867Z,3.30
2018-04-18T12:07:00.897Z,3.40
2018-04-18T12:08:36.148Z,3.70
2018-04-18T12:09:00.941Z,3.50
2018-04-18T12:10:00.985Z,3.30
2018-04-18T12:11:01.020Z,3.70
2018-04-18T12:12:01.020Z,5.00
2018-04-18T12:13:01.174Z,4.70
2018-04-18T12:14:01.068Z,5.30
2018-04-18T12:15:02.046Z,5.10
2018-04-18T12:16:01.263Z,4.90
2018-04-18T12:17:01.191Z,5.20
2018-04-18T12:19:32.936Z,4.80
2018-04-18T12:20:32.812Z,4.40
2018-04-18T12:21:32.873Z,4.70
2018-04-18T12:22:32.909Z,4.10
2018-04-18T12:23:32.937Z,4.20
2018-04-18T12:24:32.895Z,4.20
2018-04-18T12:25:32.947Z,4.70
2018-04-18T12:26:32.913Z,4.50
2018-04-18T12:27:32.939Z,4.10
2018-04-18T12:28:33.006Z,3.70
2018-04-18T12:29:32.992Z,3.90
2018-04-18T12:30:33.073Z,3.70
2018-04-18T12:31:33.024Z,3.70
2018-04-18T12:32:33.080Z,3.60
2018-04-18T12:33:33.234Z,4.00
2018-04-18T12:34:33.087Z,3.50
2018-04-18T12:35:33.110Z,3.40
2018-04-18T12:36:33.130Z,3.00
2018-04-18T12:37:33.179Z,3.20
2018-04-18T12:38:34.915Z,3.90
2018-04-18T12:39:33.253Z,3.20
2018-04-18T12:40:33.213Z,3.20
2018-04-18T12:41:33.238Z,3.30
2018-04-18T12:42:33.265Z,4.00
2018-04-18T12:43:33.332Z,3.60
2018-04-18T12:44:33.306Z,3.90
2018-04-18T12:45:33.316Z,3.60
2018-04-18T12:46:33.341Z,3.70
2018-04-18T12:47:33.379Z,4.00
2018-04-18T12:48:41.425Z,4.10
2018-04-18T12:49:33.413Z,4.20
2018-04-18T12:50:33.433Z,4.50
2018-04-18T12:51:33.452Z,4.30
2018-04-18T12:52:33.469Z,3.60
2018-04-18T12:53:45.129Z,3.50
2018-04-18T12:54:33.526Z,3.90
2018-04-18T12:55:33.534Z,4.10
2018-04-18T12:56:33.565Z,4.50
2018-04-18T12:57:33.590Z,4.50
2018-04-18T12:58:38.982Z,3.90
2018-04-18T12:59:33.667Z,4.50
2018-04-18T13:00:33.649Z,4.60
2018-04-18T13:01:33.673Z,4.10
2018-04-18T13:02:33.694Z,4.50
2018-04-18T13:03:35.477Z,4.40
2018-04-18T13:04:33.727Z,4.30
2018-04-18T13:05:33.746Z,4.10